createdAt,value
2017-12-03T18:58:55.912Z,-0.10
2017-12-03T19:03:39.988Z,-0.10
2017-12-03T19:08:24.848Z,-0.10
2017-12-03T19:13:08.911Z,-0.10
2017-12-03T19:17:53.784Z,-0.10
2017-12-03T19:22:38.024Z,-0.30
2017-12-03T19:27:23.230Z,-0.30
2017-12-03T19:32:07.348Z,-0.50
2017-12-03T19:36:51.356Z,-0.60
2017-12-03T19:41:35.531Z,-0.60
2017-12-03T19:46:19.623Z,-0.70
2017-12-03T19:51:07.575Z,-0.70
2017-12-03T19:55:51.733Z,-0.70
2017-12-03T20:00:35.790Z,-0.70
2017-12-03T20:05:19.997Z,-0.70
2017-12-03T20:10:09.177Z,-0.70
2017-12-03T20:14:54.132Z,-0.60
2017-12-03T20:19:38.239Z,-0.70
2017-12-03T20:24:22.318Z,-0.60
2017-12-03T20:29:06.460Z,-0.60
2017-12-03T20:33:50.574Z,-0.50
2017-12-03T20:38:34.760Z,-0.50
2017-12-03T20:43:19.767Z,-0.50
2017-12-03T20:48:08.157Z,-0.60
2017-12-03T20:52:52.361Z,-0.60
2017-12-03T20:57:36.869Z,-0.60
2017-12-03T21:02:21.004Z,-0.50
2017-12-03T21:07:06.721Z,-0.50
2017-12-03T21:11:50.858Z,-0.50
2017-12-03T21:16:34.989Z,-0.40
2017-12-03T21:21:19.046Z,-0.50
2017-12-03T21:26:07.700Z,-0.40
2017-12-03T21:30:51.763Z,-0.40
2017-12-03T21:35:35.832Z,-0.40
2017-12-03T21:40:19.914Z,-0.50
2017-12-03T21:45:08.975Z,-0.50
2017-12-03T21:49:53.456Z,-0.50
2017-12-03T21:54:38.326Z,-0.50
2017-12-03T21:59:28.486Z,-0.60
2017-12-03T22:04:12.561Z,-0.50
2017-12-03T22:08:56.667Z,-0.40
2017-12-03T22:13:40.703Z,-0.40
2017-12-03T22:18:25.004Z,-0.30
2017-12-03T22:23:09.063Z,-0.30
2017-12-03T22:27:53.121Z,-0.30
2017-12-03T22:32:37.170Z,-0.40
2017-12-03T22:37:22.761Z,-0.40
2017-12-03T22:42:07.538Z,-0.50
2017-12-03T22:46:51.608Z,-0.50
2017-12-03T22:51:35.670Z,-0.50
2017-12-03T22:56:20.543Z,-0.50
2017-12-03T23:01:07.866Z,-0.50
2017-12-03T23:05:51.916Z,-0.40
2017-12-03T23:10:35.978Z,-0.40
2017-12-03T23:15:20.090Z,-0.40
2017-12-03T23:20:07.186Z,-0.30
2017-12-03T23:24:51.278Z,-0.30
2017-12-03T23:29:35.508Z,-0.20
2017-12-03T23:34:19.523Z,-0.20
2017-12-03T23:39:07.544Z,-0.20
2017-12-03T23:43:51.584Z,-0.10
2017-12-03T23:48:38.113Z,-0.10
2017-12-03T23:53:23.065Z,0.00
2017-12-03T23:58:07.208Z,0.00
